Portada
METAR-TAF:

METAR-TAF

Aeropuertos :

Orán, Argelia

Aeropuerto de Orán Es Sénia

latitud: 35-38N, longitud: 000-36W, altitud: 90 m

Observación

El informe se hizo hace 20 minutos, a las 11:00 UTC
Viento 4 kt del sur-suroeste
Temperatura 18°C
Humedad 56%
Presión 1021 hPa
Visibilidad 10 km o más
Escasas nubes a una altura de 2300 ft

METAR: DAOO 231100Z 20004KT 9999 FEW023 18/09 Q1021

Hora: 12:20 (11:20 UTC)

Pronóstico

El informe se hizo hace 6 horas y 20 minutos, a las 05:00 UTC
Pronóstico válido del 23 a las 06 UTC al 24 a las 06 UTC
Viento 2 kt con dirección variable
Visibilidad 10 km o más
sin nubes por debajo de 1500 m y sin presencia de cumulonimbus.
Evolucionando progresivamente
del 23 a las 21 UTC al 23 a las 24 UTC
Viento 5 kt del sur
Evolucionando progresivamente
del 24 a las 01 UTC al 24 a las 04 UTC
Viento 2 kt con dirección variable

TAF: DAOO 230500Z 2306/2406 VRB02KT CAVOK BECMG 2321/2324 18005KT BECMG 2401/2404 VRB02KT

Observaciones y pronósticos meteorológicos de más de 4000 aeropuertos (mensajes METAR y TAF).

Los puntos amarillos y rojos representan las estaciones disponibles.

Ponga el ratón en el punto deseado para ver el nombre de la estación.

Haga clic para ver las observaciones y los pronósticos meteorológicos.

Para cambiar el mapa : haga clic en los botones verdes con una cruz de color negro para hacer un zoom, en el botón verde con un guión para alejar o en las flechas verdes para mapas adyacentes.


METAR-TAF: